Time;durP1;ratioP1;P1;durP2;ratioP2;P2;SDS_P1;SDS_P2;PMS_P1;PMS_P2;Temp;Humidity;BMP_temperature;BMP_pressure;BME280_temperature;BME280_humidity;BME280_pressure;Samples;Min_cycle;Max_cycle;Signal;HPM_P1;HPM_P2
2022/09/05 00:02:51;;;;;;;2.20;1.40;;;22.90;99.90;;;;;;5036406;28;20208;-93
2022/09/05 00:05:35;;;;;;;2.87;0.97;;;23.10;99.90;;;;;;5042670;28;20204;-93
2022/09/05 00:08:42;;;;;;;1.43;0.70;;;23.00;99.90;;;;;;5053959;28;20222;-93
2022/09/05 00:11:24;;;;;;;3.03;1.10;;;23.00;99.90;;;;;;5050920;28;20208;-93
2022/09/05 00:14:35;;;;;;;2.73;0.77;;;23.00;99.90;;;;;;5046945;28;20238;-93
2022/09/05 00:20:54;;;;;;;1.60;0.60;;;23.10;99.90;;;;;;5042317;28;20200;-93
2022/09/05 00:23:58;;;;;;;1.93;0.77;;;22.90;99.90;;;;;;5043890;28;20220;-92
2022/09/05 00:26:58;;;;;;;1.47;0.63;;;22.80;99.90;;;;;;5045336;28;20236;-93
2022/09/05 00:29:48;;;;;;;1.23;0.60;;;22.80;99.90;;;;;;5050188;28;20596;-93
2022/09/05 00:33:04;;;;;;;1.13;0.60;;;22.60;99.90;;;;;;5048969;28;20243;-92
2022/09/05 00:36:22;;;;;;;1.47;0.60;;;22.60;99.90;;;;;;5034353;28;20276;-94
2022/09/05 00:39:14;;;;;;;0.77;0.70;;;22.60;99.90;;;;;;5054767;28;20196;-94
2022/09/05 00:44:39;;;;;;;2.30;0.93;;;22.20;99.90;;;;;;5061356;28;20212;-94
2022/09/05 00:47:34;;;;;;;1.83;1.00;;;22.00;99.90;;;;;;5068778;28;20208;-93
2022/09/05 00:50:12;;;;;;;2.20;0.97;;;21.70;99.90;;;;;;5057513;28;20217;-93
2022/09/05 00:52:52;;;;;;;1.87;1.00;;;21.50;99.90;;;;;;5067004;28;20207;-93
2022/09/05 00:55:56;;;;;;;2.27;1.00;;;21.30;99.90;;;;;;5065482;28;20239;-93
2022/09/05 00:59:01;;;;;;;3.23;1.00;;;21.20;99.90;;;;;;5062784;28;20200;-93
2022/09/05 01:01:38;;;;;;;1.67;1.10;;;21.10;99.90;;;;;;5066860;28;20687;-94
2022/09/05 01:04:31;;;;;;;2.33;1.37;;;21.10;99.90;;;;;;5067074;28;20262;-93
2022/09/05 01:07:18;;;;;;;2.03;0.90;;;21.00;99.90;;;;;;5401258;22;20244;-94
2022/09/05 01:10:21;;;;;;;2.13;1.20;;;21.00;99.90;;;;;;5061788;28;20211;-93
2022/09/05 01:16:23;;;;;;;1.37;0.80;;;20.90;99.90;;;;;;5239916;22;20272;-93
2022/09/05 01:19:06;;;;;;;2.07;1.10;;;20.90;99.90;;;;;;5063038;28;20226;-93
2022/09/05 01:22:17;;;;;;;2.03;1.20;;;20.70;99.90;;;;;;5064102;28;20216;-93
2022/09/05 01:25:12;;;;;;;2.53;1.00;;;20.70;99.90;;;;;;5062053;28;20208;-92
2022/09/05 01:28:02;;;;;;;2.43;0.97;;;20.70;99.90;;;;;;5065287;28;20219;-93
2022/09/05 01:31:01;;;;;;;1.60;1.13;;;20.70;99.90;;;;;;5059837;28;20563;-93
2022/09/05 01:33:44;;;;;;;1.80;1.20;;;20.70;99.90;;;;;;5062110;28;20215;-93
2022/09/05 01:36:40;;;;;;;1.80;1.07;;;20.70;99.90;;;;;;5060805;28;20208;-93
2022/09/05 01:39:21;;;;;;;2.40;1.20;;;20.60;99.90;;;;;;5062680;28;20232;-93
2022/09/05 01:42:30;;;;;;;3.03;1.20;;;20.70;99.90;;;;;;5060178;28;20299;-93
2022/09/05 01:45:08;;;;;;;3.67;1.70;;;20.60;99.90;;;;;;5060949;28;20208;-93
2022/09/05 01:47:50;;;;;;;4.90;1.47;;;20.50;99.90;;;;;;5061247;28;20710;-93
2022/09/05 01:50:43;;;;;;;5.60;1.77;;;20.40;99.90;;;;;;5060439;28;20204;-93
2022/09/05 01:53:34;;;;;;;2.40;1.50;;;20.30;99.90;;;;;;5059797;28;20212;-93
2022/09/05 01:56:36;;;;;;;6.23;1.70;;;20.30;99.90;;;;;;5060723;28;20240;-93
2022/09/05 01:59:18;;;;;;;2.83;1.57;;;20.20;99.90;;;;;;5068372;28;20207;-93
2022/09/05 02:02:22;;;;;;;4.47;1.83;;;20.00;99.90;;;;;;5078682;28;20219;-94
2022/09/05 02:05:09;;;;;;;4.03;1.90;;;19.80;99.90;;;;;;5079225;28;20199;-93
2022/09/05 02:08:00;;;;;;;3.70;1.97;;;19.70;99.90;;;;;;5061690;28;20262;-94
2022/09/05 02:10:47;;;;;;;2.77;1.67;;;19.60;99.90;;;;;;5059142;28;20202;-94
2022/09/05 02:13:26;;;;;;;3.07;1.77;;;19.50;99.90;;;;;;5057861;28;20213;-94
2022/09/05 02:16:07;;;;;;;3.57;2.53;;;19.50;99.90;;;;;;5056073;28;20228;-94
2022/09/05 02:18:56;;;;;;;3.67;2.17;;;19.50;99.90;;;;;;5054734;28;20267;-93
2022/09/05 02:21:41;;;;;;;3.00;1.80;;;19.40;99.90;;;;;;5061363;28;20204;-93
2022/09/05 02:24:30;;;;;;;5.00;2.37;;;19.40;99.90;;;;;;5062022;28;20223;-93
2022/09/05 02:27:18;;;;;;;6.20;2.10;;;19.30;99.90;;;;;;5061571;28;20274;-93
2022/09/05 02:30:12;;;;;;;6.60;2.33;;;19.30;99.90;;;;;;5203795;22;20334;-94
2022/09/05 02:32:56;;;;;;;3.43;2.20;;;19.20;99.90;;;;;;5101506;28;20651;-94
2022/09/05 02:35:38;;;;;;;4.03;2.23;;;19.20;99.90;;;;;;5102651;28;20690;-94
2022/09/05 02:38:15;;;;;;;5.00;2.30;;;19.10;99.90;;;;;;5102100;28;20234;-94
2022/09/05 02:41:18;;;;;;;2.63;2.13;;;19.10;99.90;;;;;;5101433;28;20206;-94
2022/09/05 02:44:13;;;;;;;3.23;1.97;;;19.00;99.90;;;;;;5100593;28;20259;-94
2022/09/05 02:47:10;;;;;;;1.90;1.70;;;18.90;99.90;;;;;;5100845;28;20234;-94
2022/09/05 02:50:01;;;;;;;2.10;1.80;;;18.60;99.90;;;;;;5103572;28;20252;-93
2022/09/05 02:52:55;;;;;;;2.70;1.40;;;18.60;99.90;;;;;;5099625;28;20203;-93
2022/09/05 02:56:08;;;;;;;2.37;1.60;;;18.40;99.90;;;;;;5100469;28;20227;-94
2022/09/05 02:59:12;;;;;;;1.30;1.20;;;18.30;99.90;;;;;;5103622;28;20260;-94
2022/09/05 03:02:06;;;;;;;1.63;1.17;;;18.10;99.90;;;;;;5101480;28;20207;-93
2022/09/05 03:05:03;;;;;;;3.17;1.23;;;18.00;99.90;;;;;;5103473;28;20215;-92
2022/09/05 03:08:08;;;;;;;3.40;1.20;;;17.80;99.90;;;;;;5104824;28;20210;-94
2022/09/05 03:11:10;;;;;;;2.60;1.20;;;17.70;99.90;;;;;;5083200;28;20207;-93
2022/09/05 03:14:20;;;;;;;2.53;1.33;;;17.60;99.90;;;;;;5085841;28;20215;-94
2022/09/05 03:17:30;;;;;;;1.67;1.10;;;17.60;99.90;;;;;;5061742;28;20269;-94
2022/09/05 03:20:39;;;;;;;2.17;1.30;;;17.40;99.90;;;;;;5055476;28;20223;-95
2022/09/05 03:23:52;;;;;;;2.37;1.13;;;17.30;99.90;;;;;;5085554;28;20222;-94
2022/09/05 03:26:56;;;;;;;2.43;1.07;;;17.30;99.90;;;;;;5084173;28;20698;-95
2022/09/05 03:29:57;;;;;;;3.53;1.30;;;17.10;99.90;;;;;;5085938;28;20731;-94
2022/09/05 03:32:59;;;;;;;4.33;1.40;;;17.10;99.90;;;;;;5088180;28;20192;-93
2022/09/05 03:36:09;;;;;;;2.10;1.00;;;17.00;99.90;;;;;;5095784;28;20249;-91
2022/09/05 03:39:31;;;;;;;1.93;1.13;;;17.00;99.90;;;;;;5095164;28;20215;-91
2022/09/05 03:42:34;;;;;;;2.60;1.10;;;16.90;99.90;;;;;;5079200;28;20206;-92
2022/09/05 03:45:30;;;;;;;1.80;0.90;;;16.90;99.90;;;;;;5089713;28;20218;-93
2022/09/05 03:48:50;;;;;;;4.70;1.37;;;16.80;99.90;;;;;;5103341;28;20659;-92
2022/09/05 03:51:32;;;;;;;4.17;1.10;;;16.80;99.90;;;;;;5058074;28;20276;-92
2022/09/05 03:54:58;;;;;;;1.00;1.00;;;16.80;99.90;;;;;;5101646;28;20762;-91
2022/09/05 03:58:22;;;;;;;3.00;1.30;;;16.70;99.90;;;;;;5098528;28;20248;-91
2022/09/05 04:01:18;;;;;;;2.60;1.00;;;16.60;99.90;;;;;;5097461;28;20225;-92
2022/09/05 04:04:12;;;;;;;1.93;1.20;;;16.50;99.90;;;;;;5098477;28;20206;-91
2022/09/05 04:07:07;;;;;;;2.43;1.00;;;16.40;99.90;;;;;;5098514;28;20207;-92
2022/09/05 04:10:05;;;;;;;2.67;0.97;;;16.30;99.90;;;;;;5098356;28;20203;-92
2022/09/05 04:12:41;;;;;;;3.07;1.10;;;16.30;99.90;;;;;;5096927;28;20245;-92
2022/09/05 04:15:25;;;;;;;1.70;0.90;;;16.30;99.90;;;;;;5097659;28;20241;-92
2022/09/05 04:18:00;;;;;;;2.40;0.83;;;16.30;99.90;;;;;;5098143;28;20267;-92
2022/09/05 04:20:44;;;;;;;2.20;1.40;;;16.30;99.90;;;;;;5097801;28;20211;-92
2022/09/05 04:23:26;;;;;;;2.30;1.23;;;16.30;99.90;;;;;;5097598;28;20203;-92
2022/09/05 04:26:09;;;;;;;2.17;0.87;;;16.20;99.90;;;;;;5097604;28;20200;-91
2022/09/05 04:29:01;;;;;;;2.13;1.20;;;16.20;99.90;;;;;;5097330;28;20272;-92
2022/09/05 04:31:43;;;;;;;1.73;1.00;;;16.10;99.90;;;;;;5097139;28;20265;-92
2022/09/05 04:34:37;;;;;;;3.03;1.20;;;16.10;99.90;;;;;;5097739;28;20230;-91
2022/09/05 04:37:11;;;;;;;3.03;1.00;;;16.10;99.90;;;;;;5097294;28;20230;-92
2022/09/05 04:39:42;;;;;;;1.87;0.93;;;16.00;99.90;;;;;;5093867;28;20221;-92
2022/09/05 04:42:23;;;;;;;1.77;0.97;;;16.00;99.90;;;;;;5076844;28;20222;-93
2022/09/05 04:44:57;;;;;;;4.10;1.40;;;16.00;99.90;;;;;;5083366;28;20203;-95
2022/09/05 04:47:31;;;;;;;3.60;1.00;;;16.00;99.90;;;;;;5097505;28;20214;-92
2022/09/05 04:50:10;;;;;;;2.63;1.33;;;16.00;99.90;;;;;;5097228;28;20206;-92
2022/09/05 04:53:13;;;;;;;2.00;0.83;;;15.90;99.90;;;;;;5098763;28;20214;-92
2022/09/05 04:58:58;;;;;;;2.87;0.90;;;15.90;99.90;;;;;;5112770;28;20706;-92
2022/09/05 05:01:48;;;;;;;3.17;0.90;;;15.90;99.90;;;;;;5108096;28;20207;-92
2022/09/05 05:04:39;;;;;;;1.83;1.20;;;15.90;99.90;;;;;;5107456;28;20187;-92
2022/09/05 05:07:40;;;;;;;4.40;1.80;;;15.90;99.90;;;;;;5098451;28;20241;-92
2022/09/05 05:10:22;;;;;;;3.33;1.40;;;15.90;99.90;;;;;;5076971;28;20593;-91
2022/09/05 05:13:22;;;;;;;4.13;1.10;;;15.90;99.90;;;;;;5075755;28;20207;-92
2022/09/05 05:16:19;;;;;;;1.70;0.80;;;15.80;99.90;;;;;;5076597;28;20235;-92
2022/09/05 05:19:17;;;;;;;2.63;0.90;;;15.80;99.90;;;;;;5076218;28;20567;-92
2022/09/05 05:21:54;;;;;;;2.83;0.90;;;15.80;99.90;;;;;;5075885;28;20207;-92
2022/09/05 05:24:31;;;;;;;3.70;1.00;;;15.80;99.90;;;;;;5076303;28;20203;-92
2022/09/05 05:27:10;;;;;;;1.60;1.00;;;15.80;99.90;;;;;;5076513;28;20200;-92
2022/09/05 05:29:49;;;;;;;5.97;1.00;;;15.80;99.90;;;;;;5088852;22;20267;-93
2022/09/05 05:32:26;;;;;;;2.23;1.13;;;15.80;99.90;;;;;;5035438;28;20208;-93
2022/09/05 05:35:21;;;;;;;5.40;1.00;;;15.90;99.90;;;;;;5037925;28;20654;-92
2022/09/05 05:38:00;;;;;;;3.33;1.17;;;15.90;99.90;;;;;;5030744;28;20266;-92
2022/09/05 05:40:33;;;;;;;2.73;1.07;;;15.90;99.90;;;;;;5045441;28;20223;-91
2022/09/05 05:43:23;;;;;;;4.57;1.10;;;15.90;99.90;;;;;;5037700;28;20303;-92
2022/09/05 05:46:00;;;;;;;3.47;1.27;;;15.90;99.90;;;;;;5038524;28;20217;-91
2022/09/05 05:48:38;;;;;;;2.47;1.00;;;15.90;99.90;;;;;;5038628;28;20255;-91
2022/09/05 05:51:34;;;;;;;3.03;0.90;;;15.90;99.90;;;;;;5041816;28;20209;-91
2022/09/05 05:54:31;;;;;;;4.63;1.00;;;15.80;99.90;;;;;;5039253;28;20209;-92
2022/09/05 05:57:28;;;;;;;2.33;1.30;;;15.80;99.90;;;;;;5043226;28;20236;-91
2022/09/05 06:00:07;;;;;;;3.07;1.23;;;15.80;99.90;;;;;;5042275;28;20237;-91
2022/09/05 06:03:24;;;;;;;1.10;0.80;;;15.80;99.90;;;;;;5042533;28;20541;-92
2022/09/05 06:06:20;;;;;;;3.07;1.10;;;15.80;99.90;;;;;;5041416;28;20291;-93
2022/09/05 06:09:27;;;;;;;4.33;1.23;;;15.80;99.90;;;;;;5041668;28;20209;-92
2022/09/05 06:13:10;;;;;;;3.53;1.43;;;15.80;99.90;;;;;;5038522;28;20302;-92
2022/09/05 06:16:27;;;;;;;2.20;1.00;;;15.70;99.90;;;;;;5040965;28;20208;-92
2022/09/05 06:19:35;;;;;;;2.83;1.10;;;15.70;99.90;;;;;;5026403;28;20213;-92
2022/09/05 06:23:14;;;;;;;3.20;1.20;;;15.70;99.90;;;;;;5037915;28;20255;-93
2022/09/05 06:26:44;;;;;;;4.67;1.40;;;15.70;99.90;;;;;;5046138;28;20307;-93
2022/09/05 06:29:29;;;;;;;3.50;0.80;;;15.70;99.90;;;;;;5043611;28;20248;-93
2022/09/05 06:32:23;;;;;;;2.70;1.20;;;15.60;99.90;;;;;;5020237;28;20665;-93
2022/09/05 06:35:26;;;;;;;1.33;0.97;;;15.50;99.90;;;;;;5023671;28;20208;-93
2022/09/05 06:38:25;;;;;;;3.13;1.20;;;15.50;99.90;;;;;;5023739;28;20237;-93
2022/09/05 06:41:14;;;;;;;6.03;1.23;;;15.60;99.90;;;;;;5024317;28;20279;-93
2022/09/05 06:44:16;;;;;;;2.63;0.90;;;15.50;99.90;;;;;;5025020;28;20209;-92
2022/09/05 06:46:51;;;;;;;2.40;1.00;;;15.60;99.90;;;;;;5025104;28;20275;-93
2022/09/05 06:50:00;;;;;;;3.27;1.00;;;15.60;99.90;;;;;;5026312;28;20205;-93
2022/09/05 06:53:28;;;;;;;3.20;1.20;;;15.50;99.90;;;;;;5022275;28;20229;-93
2022/09/05 06:56:38;;;;;;;2.33;1.03;;;15.50;99.90;;;;;;5023156;28;20221;-93
2022/09/05 06:59:50;;;;;;;1.23;1.00;;;15.50;99.90;;;;;;5015747;28;20209;-93
2022/09/05 07:02:33;;;;;;;2.87;0.93;;;15.50;99.90;;;;;;5018170;28;20225;-93
2022/09/05 07:05:38;;;;;;;3.97;1.00;;;15.50;99.90;;;;;;5025926;28;20233;-92
2022/09/05 07:08:29;;;;;;;1.87;1.13;;;15.50;99.90;;;;;;5030577;28;20204;-93
2022/09/05 07:11:35;;;;;;;2.87;1.07;;;15.60;99.90;;;;;;5056156;28;20221;-93
2022/09/05 07:14:13;;;;;;;3.50;1.10;;;15.50;99.90;;;;;;5042999;28;20620;-92
2022/09/05 07:16:49;;;;;;;1.23;1.00;;;15.40;99.90;;;;;;5073514;22;20294;-93
2022/09/05 07:19:32;;;;;;;1.83;1.00;;;15.40;99.90;;;;;;5040107;28;20209;-93
2022/09/05 07:22:19;;;;;;;4.80;1.10;;;15.40;99.90;;;;;;5041309;28;20209;-93
2022/09/05 07:25:08;;;;;;;1.40;1.00;;;15.50;99.90;;;;;;5025866;28;20205;-93
2022/09/05 07:27:56;;;;;;;1.57;1.07;;;15.50;99.90;;;;;;5025869;28;20266;-93
2022/09/05 07:30:51;;;;;;;2.23;1.13;;;15.40;99.90;;;;;;5042647;28;20243;-93
2022/09/05 07:33:30;;;;;;;2.43;0.90;;;15.40;99.90;;;;;;5040875;28;20216;-92
2022/09/05 07:36:08;;;;;;;4.30;1.10;;;15.40;99.90;;;;;;5041594;28;20201;-92
2022/09/05 07:38:42;;;;;;;3.57;1.20;;;15.30;99.90;;;;;;5041294;28;20239;-93
2022/09/05 07:41:27;;;;;;;3.27;1.30;;;15.30;99.90;;;;;;5041530;28;20209;-93
2022/09/05 07:44:06;;;;;;;1.60;1.10;;;15.30;99.90;;;;;;5040938;28;20266;-92
2022/09/05 07:46:41;;;;;;;2.50;1.33;;;15.30;99.90;;;;;;5038258;28;20695;-92
2022/09/05 07:49:15;;;;;;;1.37;1.00;;;15.30;99.90;;;;;;5038120;28;20209;-92
2022/09/05 07:51:54;;;;;;;2.10;1.00;;;15.30;99.90;;;;;;5037285;28;20243;-92
2022/09/05 07:54:47;;;;;;;1.40;1.20;;;15.10;99.90;;;;;;5039447;28;20311;-93
2022/09/05 07:57:46;;;;;;;2.93;1.50;;;15.10;99.90;;;;;;5037228;28;20323;-92
2022/09/05 08:00:25;;;;;;;2.23;1.40;;;15.10;99.90;;;;;;5024857;28;20262;-94
2022/09/05 08:03:11;;;;;;;4.50;1.57;;;15.10;99.90;;;;;;5037448;28;20220;-93
2022/09/05 08:05:47;;;;;;;4.77;1.63;;;15.10;99.90;;;;;;5038291;28;20227;-93
2022/09/05 08:08:23;;;;;;;2.07;1.40;;;15.10;99.90;;;;;;5038692;28;20263;-94
2022/09/05 08:10:56;;;;;;;2.47;1.30;;;15.10;99.90;;;;;;5021198;28;20224;-94
2022/09/05 08:13:58;;;;;;;3.47;1.57;;;15.10;99.90;;;;;;5037661;28;20196;-94
2022/09/05 08:16:52;;;;;;;3.07;1.50;;;15.10;99.90;;;;;;5019238;28;20231;-94
2022/09/05 08:19:55;;;;;;;5.27;1.80;;;15.10;99.90;;;;;;5018876;28;20212;-94
2022/09/05 08:22:50;;;;;;;2.37;1.40;;;15.00;99.90;;;;;;5019510;28;20678;-93
2022/09/05 08:25:27;;;;;;;3.63;1.63;;;15.00;99.90;;;;;;5020775;28;20274;-93
2022/09/05 08:28:24;;;;;;;4.50;1.67;;;15.00;99.90;;;;;;5020534;28;20296;-94
2022/09/05 08:31:15;;;;;;;2.30;1.30;;;14.90;99.90;;;;;;5021361;28;20206;-91
2022/09/05 08:33:54;;;;;;;2.43;1.80;;;14.90;99.90;;;;;;5020151;28;20651;-92
2022/09/05 08:36:33;;;;;;;3.37;1.90;;;14.80;99.90;;;;;;5019015;28;20208;-91
2022/09/05 08:39:09;;;;;;;1.57;1.20;;;14.90;99.90;;;;;;5020629;28;20233;-91
2022/09/05 08:42:05;;;;;;;4.93;1.67;;;14.90;99.90;;;;;;5018067;28;20232;-92
2022/09/05 08:44:41;;;;;;;2.23;1.43;;;14.90;99.90;;;;;;5017762;28;20214;-92
2022/09/05 08:47:41;;;;;;;1.60;1.50;;;14.80;99.90;;;;;;5017359;28;20205;-92
2022/09/05 08:50:36;;;;;;;4.80;1.70;;;14.80;99.90;;;;;;5017193;28;20247;-91
2022/09/05 08:53:18;;;;;;;3.90;1.57;;;14.80;99.90;;;;;;4999828;28;20201;-92
2022/09/05 08:56:17;;;;;;;5.20;1.40;;;14.70;99.90;;;;;;5017645;28;20206;-91
2022/09/05 08:59:16;;;;;;;2.13;1.37;;;14.70;99.90;;;;;;5020034;28;20237;-92
2022/09/05 09:02:20;;;;;;;5.07;1.50;;;14.60;99.90;;;;;;5025478;28;20193;-91
2022/09/05 09:05:22;;;;;;;3.83;1.20;;;14.70;99.90;;;;;;5019922;28;20209;-92
2022/09/05 09:08:19;;;;;;;1.83;1.13;;;14.70;99.90;;;;;;5041198;28;20218;-92
2022/09/05 09:10:58;;;;;;;2.53;1.10;;;14.60;99.90;;;;;;5056287;28;20219;-92
2022/09/05 09:13:50;;;;;;;3.03;1.30;;;14.60;99.90;;;;;;5056531;28;20293;-92
2022/09/05 09:16:30;;;;;;;2.67;1.43;;;14.60;99.90;;;;;;5058533;28;20212;-92
2022/09/05 09:19:08;;;;;;;3.17;0.93;;;14.50;99.90;;;;;;5057556;28;20263;-94
2022/09/05 09:21:47;;;;;;;1.83;1.17;;;14.50;99.90;;;;;;5051645;28;20217;-94
2022/09/05 09:24:32;;;;;;;3.50;1.20;;;14.50;99.90;;;;;;5040936;28;20215;-93
2022/09/05 09:27:07;;;;;;;2.70;1.47;;;14.50;99.90;;;;;;5041928;28;20233;-92
2022/09/05 09:29:41;;;;;;;1.07;0.90;;;14.50;99.90;;;;;;5043919;28;20266;-92
2022/09/05 09:32:15;;;;;;;2.63;1.33;;;14.50;99.90;;;;;;5039978;28;20244;-91
2022/09/05 09:34:55;;;;;;;2.30;1.20;;;14.50;99.90;;;;;;5042042;28;20270;-94
2022/09/05 09:38:05;;;;;;;3.33;1.17;;;14.40;99.90;;;;;;5041108;28;20216;-94
2022/09/05 09:40:59;;;;;;;4.67;1.03;;;14.40;99.90;;;;;;5040011;28;20209;-94
2022/09/05 09:43:57;;;;;;;2.10;1.07;;;14.40;99.90;;;;;;5039643;28;20221;-94
2022/09/05 09:46:39;;;;;;;3.00;1.17;;;14.30;99.90;;;;;;5019300;28;20283;-94
2022/09/05 09:49:29;;;;;;;2.33;1.20;;;14.30;99.90;;;;;;5040091;28;20232;-94
2022/09/05 09:52:25;;;;;;;1.53;1.27;;;14.20;99.90;;;;;;5039339;28;20213;-94
2022/09/05 09:55:39;;;;;;;1.83;1.20;;;14.20;99.90;;;;;;5039719;28;20302;-94
2022/09/05 09:58:37;;;;;;;2.50;1.53;;;14.20;99.90;;;;;;5039400;28;20259;-94
2022/09/05 10:01:25;;;;;;;3.37;1.20;;;14.10;99.90;;;;;;5035132;28;20240;-93
2022/09/05 10:04:35;;;;;;;2.97;1.40;;;14.00;99.90;;;;;;5039001;28;20591;-94
2022/09/05 10:07:51;;;;;;;4.03;1.43;;;14.10;99.90;;;;;;5041896;28;20205;-94
2022/09/05 10:11:23;;;;;;;3.20;1.40;;;14.10;99.90;;;;;;5039468;28;20204;-94
2022/09/05 10:14:58;;;;;;;1.83;1.10;;;14.10;99.90;;;;;;5039013;28;20232;-94
2022/09/05 10:18:15;;;;;;;5.20;1.43;;;14.10;99.90;;;;;;5039007;28;20247;-93
2022/09/05 10:21:04;;;;;;;2.40;1.33;;;14.10;99.90;;;;;;5039155;28;20235;-93
2022/09/05 10:24:21;;;;;;;1.73;1.13;;;14.10;99.90;;;;;;5039251;28;20279;-93
2022/09/05 10:27:29;;;;;;;1.73;1.33;;;14.10;99.90;;;;;;5039222;28;20227;-92
2022/09/05 10:30:20;;;;;;;5.23;1.33;;;14.10;99.90;;;;;;5039166;28;20246;-92
2022/09/05 10:33:30;;;;;;;2.47;1.27;;;14.10;99.90;;;;;;5038659;28;20211;-92
2022/09/05 10:36:27;;;;;;;3.10;1.30;;;14.00;99.90;;;;;;5039116;28;20228;-92
2022/09/05 10:39:14;;;;;;;5.70;1.40;;;13.90;99.90;;;;;;5038017;28;20281;-92
2022/09/05 10:41:49;;;;;;;3.23;1.93;;;13.80;99.90;;;;;;5038257;28;20254;-92
2022/09/05 10:44:34;;;;;;;3.43;1.33;;;13.70;99.90;;;;;;5039231;28;20212;-92
2022/09/05 10:47:21;;;;;;;4.23;1.43;;;13.60;99.90;;;;;;5035024;28;20289;-92
2022/09/05 10:50:02;;;;;;;2.33;1.43;;;13.40;99.90;;;;;;5039520;28;20259;-92
2022/09/05 10:52:38;;;;;;;2.57;1.67;;;13.40;99.90;;;;;;5038186;28;20212;-93
2022/09/05 10:55:21;;;;;;;4.03;1.70;;;13.40;99.90;;;;;;5038879;28;20227;-92
2022/09/05 10:58:00;;;;;;;3.83;1.43;;;13.30;99.90;;;;;;5038266;28;20624;-92
2022/09/05 11:00:59;;;;;;;2.43;1.33;;;13.30;99.90;;;;;;5038299;28;20236;-92
2022/09/05 11:03:56;;;;;;;3.93;1.50;;;13.20;99.90;;;;;;5038386;28;20205;-92
2022/09/05 11:06:49;;;;;;;2.37;1.20;;;13.20;99.90;;;;;;5038592;28;20296;-92
2022/09/05 11:09:32;;;;;;;2.03;1.27;;;13.20;99.90;;;;;;5043205;28;20225;-92
2022/09/05 11:12:13;;;;;;;2.17;1.50;;;13.20;99.90;;;;;;5041403;28;20212;-92
2022/09/05 11:14:52;;;;;;;3.10;1.40;;;13.20;99.90;;;;;;5038321;28;20266;-92
2022/09/05 11:17:31;;;;;;;4.43;1.60;;;13.10;99.90;;;;;;5040530;28;20229;-92
2022/09/05 11:20:45;;;;;;;4.03;1.53;;;13.10;99.90;;;;;;5043146;28;20255;-91
2022/09/05 11:23:22;;;;;;;2.43;1.17;;;13.10;99.90;;;;;;5020412;28;20236;-92
2022/09/05 11:25:59;;;;;;;2.13;1.70;;;13.10;99.90;;;;;;5018818;28;20210;-92
2022/09/05 11:28:38;;;;;;;3.20;1.60;;;13.10;99.90;;;;;;5019076;28;20209;-92
2022/09/05 11:31:43;;;;;;;3.40;1.57;;;13.00;99.90;;;;;;5018076;28;20718;-93
2022/09/05 11:34:49;;;;;;;3.80;1.43;;;13.00;99.90;;;;;;5018838;28;20213;-93
2022/09/05 11:38:01;;;;;;;3.60;1.50;;;12.90;99.90;;;;;;5018380;28;20269;-92
2022/09/05 11:41:19;;;;;;;2.40;1.80;;;12.90;99.90;;;;;;5018512;28;20320;-92
2022/09/05 11:44:34;;;;;;;3.10;1.57;;;12.90;99.90;;;;;;5015642;28;20213;-93
2022/09/05 11:47:38;;;;;;;1.87;1.47;;;12.90;99.90;;;;;;5015826;28;20210;-92
2022/09/05 11:50:56;;;;;;;1.70;1.40;;;12.90;99.90;;;;;;5003594;28;20219;-92
2022/09/05 11:54:30;;;;;;;2.57;1.60;;;12.80;99.90;;;;;;5018210;28;20273;-92
2022/09/05 11:57:24;;;;;;;2.90;1.90;;;12.70;99.90;;;;;;5017817;28;20237;-93
2022/09/05 12:00:19;;;;;;;4.00;2.17;;;12.70;99.90;;;;;;5017921;28;20339;-93
2022/09/05 12:03:53;;;;;;;1.93;1.63;;;12.70;99.90;;;;;;5018744;28;20214;-92
2022/09/05 12:07:19;;;;;;;4.27;1.90;;;12.70;99.90;;;;;;5004666;28;20208;-93
2022/09/05 12:10:14;;;;;;;2.37;1.73;;;12.80;99.90;;;;;;4997330;28;20201;-92
2022/09/05 12:13:36;;;;;;;5.03;1.70;;;12.90;99.90;;;;;;5002512;28;20275;-93
2022/09/05 12:16:45;;;;;;;4.77;1.90;;;12.90;99.90;;;;;;5017587;28;20216;-92
2022/09/05 12:19:33;;;;;;;2.77;1.50;;;12.90;99.90;;;;;;4976625;28;20238;-92
2022/09/05 12:22:27;;;;;;;3.37;1.60;;;13.00;99.90;;;;;;5028645;28;20266;-92
2022/09/05 12:25:21;;;;;;;5.03;1.70;;;13.10;99.90;;;;;;5037675;28;20201;-92
2022/09/05 12:28:18;;;;;;;2.60;1.63;;;13.10;99.90;;;;;;5037856;28;20201;-92
2022/09/05 12:31:17;;;;;;;4.73;1.70;;;13.20;99.90;;;;;;5039199;28;20292;-92
2022/09/05 12:34:17;;;;;;;3.03;1.50;;;13.20;99.90;;;;;;5039851;28;20201;-92
2022/09/05 12:37:13;;;;;;;4.80;1.60;;;13.30;99.90;;;;;;5056519;28;20211;-92
2022/09/05 12:40:11;;;;;;;2.60;1.50;;;13.30;99.90;;;;;;5055868;28;20252;-92
2022/09/05 12:43:04;;;;;;;2.37;1.37;;;13.40;99.90;;;;;;5053260;28;20215;-92
2022/09/05 12:45:59;;;;;;;3.63;1.60;;;13.50;99.90;;;;;;5038218;28;20727;-92
2022/09/05 12:48:41;;;;;;;3.10;1.40;;;13.60;99.90;;;;;;5040041;28;20272;-92
2022/09/05 12:51:20;;;;;;;3.73;1.47;;;13.60;99.90;;;;;;5037726;28;20228;-92
2022/09/05 12:54:23;;;;;;;3.27;1.10;;;13.70;99.90;;;;;;5039391;28;20211;-92
2022/09/05 12:57:11;;;;;;;3.73;1.50;;;13.70;99.90;;;;;;5042035;28;20189;-92
2022/09/05 13:00:10;;;;;;;1.57;1.10;;;13.80;99.90;;;;;;5038729;28;20308;-92
2022/09/05 13:03:04;;;;;;;2.13;1.30;;;13.80;99.90;;;;;;5038548;28;20232;-92
2022/09/05 13:06:09;;;;;;;4.67;1.23;;;13.80;99.90;;;;;;5039210;28;20299;-92
2022/09/05 13:09:01;;;;;;;2.23;1.20;;;13.80;99.90;;;;;;5037719;28;20216;-92
2022/09/05 13:11:44;;;;;;;3.33;1.37;;;13.90;99.90;;;;;;5039379;28;20212;-92
2022/09/05 13:14:51;;;;;;;2.27;1.27;;;13.90;99.90;;;;;;5039601;28;20228;-91
2022/09/05 13:17:45;;;;;;;2.87;1.60;;;13.90;99.90;;;;;;5039163;28;20300;-92
2022/09/05 13:20:21;;;;;;;2.67;1.30;;;13.90;99.90;;;;;;5036775;28;20255;-92
2022/09/05 13:22:56;;;;;;;4.07;1.40;;;13.90;99.90;;;;;;5038271;28;20212;-92
2022/09/05 13:25:31;;;;;;;3.77;1.53;;;13.90;99.90;;;;;;5036712;28;20551;-92
2022/09/05 13:28:07;;;;;;;3.03;1.50;;;13.80;99.90;;;;;;5037062;28;20219;-92
2022/09/05 13:30:49;;;;;;;1.50;1.40;;;13.90;99.90;;;;;;5036906;28;20275;-92
2022/09/05 13:33:44;;;;;;;3.27;1.30;;;13.90;99.90;;;;;;5036007;28;20280;-92
2022/09/05 13:36:38;;;;;;;2.83;1.60;;;13.90;99.90;;;;;;5036308;28;20208;-92
2022/09/05 13:39:40;;;;;;;4.10;1.20;;;13.80;99.90;;;;;;5036728;28;20232;-92
2022/09/05 13:42:18;;;;;;;1.73;1.20;;;13.80;99.90;;;;;;5035936;28;20219;-92
2022/09/05 13:44:53;;;;;;;2.10;1.43;;;13.80;99.90;;;;;;5019560;28;20212;-92
2022/09/05 13:47:57;;;;;;;1.63;1.23;;;13.80;99.90;;;;;;5035949;28;20622;-92
2022/09/05 13:50:31;;;;;;;1.33;1.20;;;13.80;99.90;;;;;;5035599;28;20247;-92
2022/09/05 13:53:06;;;;;;;1.73;0.93;;;13.80;99.90;;;;;;5015944;28;20260;-92
2022/09/05 13:55:52;;;;;;;2.87;1.00;;;13.90;99.90;;;;;;5016314;28;20241;-92
2022/09/05 13:58:41;;;;;;;2.20;1.17;;;13.90;99.90;;;;;;5016671;28;20228;-92
2022/09/05 14:01:50;;;;;;;2.67;1.20;;;14.00;99.90;;;;;;5016125;28;20623;-92
2022/09/05 14:05:12;;;;;;;2.00;1.23;;;14.00;99.90;;;;;;5003926;28;20212;-92
2022/09/05 14:08:23;;;;;;;3.50;1.20;;;14.00;99.90;;;;;;5016103;28;20216;-92
2022/09/05 14:11:26;;;;;;;5.00;1.80;;;14.10;99.90;;;;;;5016795;28;20206;-92
2022/09/05 14:14:09;;;;;;;2.13;1.20;;;14.20;99.90;;;;;;5012198;28;20210;-92
2022/09/05 14:16:48;;;;;;;2.70;1.10;;;14.20;99.90;;;;;;5019482;28;20213;-93
2022/09/05 14:22:32;;;;;;;2.10;1.23;;;14.10;99.90;;;;;;5022896;28;20202;-93
2022/09/05 14:25:08;;;;;;;1.27;1.00;;;14.10;99.90;;;;;;5022242;28;20225;-93
2022/09/05 14:27:45;;;;;;;2.33;1.30;;;14.10;99.90;;;;;;5024922;28;20217;-95
2022/09/05 14:30:41;;;;;;;1.33;1.20;;;14.00;99.90;;;;;;5025219;28;20640;-94
2022/09/05 14:33:55;;;;;;;2.77;1.50;;;14.10;99.90;;;;;;5028513;28;20279;-92
2022/09/05 14:36:56;;;;;;;1.50;1.20;;;14.10;99.90;;;;;;5032294;28;20247;-92
2022/09/05 14:40:17;;;;;;;1.20;1.10;;;14.20;99.90;;;;;;5042530;28;20247;-92
2022/09/05 14:43:34;;;;;;;1.47;1.00;;;14.10;99.90;;;;;;5042114;28;20213;-93
2022/09/05 14:46:43;;;;;;;4.13;1.60;;;14.20;99.90;;;;;;5014740;28;20653;-91
2022/09/05 14:49:36;;;;;;;1.63;1.00;;;14.20;99.90;;;;;;5042326;28;20575;-92
2022/09/05 14:52:18;;;;;;;3.03;1.10;;;14.30;99.90;;;;;;5042451;28;20220;-92
2022/09/05 14:54:55;;;;;;;1.87;1.13;;;14.40;99.90;;;;;;5041826;28;20287;-91
2022/09/05 14:57:49;;;;;;;1.40;1.00;;;14.50;99.90;;;;;;5039549;28;20719;-92
2022/09/05 15:00:55;;;;;;;5.73;1.40;;;14.50;99.90;;;;;;5026999;28;20228;-92
2022/09/05 15:03:52;;;;;;;3.30;1.20;;;14.50;99.90;;;;;;5042107;28;20201;-92
2022/09/05 15:06:43;;;;;;;4.17;1.40;;;14.50;99.90;;;;;;5040843;28;20273;-92
2022/09/05 15:09:18;;;;;;;1.70;1.30;;;14.60;99.90;;;;;;5027042;28;20227;-92
2022/09/05 15:12:16;;;;;;;3.77;1.30;;;14.80;99.90;;;;;;5041261;28;20240;-92
2022/09/05 15:15:21;;;;;;;4.50;1.40;;;14.80;99.90;;;;;;5050250;28;20213;-92
2022/09/05 15:17:57;;;;;;;4.20;1.60;;;15.00;99.90;;;;;;5045968;28;20216;-93
2022/09/05 15:20:32;;;;;;;2.60;1.30;;;15.10;99.90;;;;;;5049241;28;20216;-92